Time;durP1;ratioP1;P1;durP2;ratioP2;P2;SDS_P1;SDS_P2;PMS_P1;PMS_P2;Temp;Humidity;BMP_temperature;BMP_pressure;BME280_temperature;BME280_humidity;BME280_pressure;Samples;Min_cycle;Max_cycle;Signal;HPM_P1;HPM_P2
2023/07/08 00:02:11;;;;;;;13.48;8.23;;;16.60;99.90;;;;;;5010531;28;21115;-81
2023/07/08 00:04:38;;;;;;;11.48;7.93;;;16.60;99.90;;;;;;5007948;28;20042;-82
2023/07/08 00:07:04;;;;;;;12.73;8.70;;;16.60;99.90;;;;;;5012403;28;20732;-82
2023/07/08 00:09:30;;;;;;;15.48;9.15;;;16.60;99.90;;;;;;5008324;28;20049;-82
2023/07/08 00:11:57;;;;;;;17.73;8.90;;;16.50;99.90;;;;;;5008511;28;20195;-82
2023/07/08 00:14:23;;;;;;;14.65;8.60;;;16.60;99.90;;;;;;5008511;28;20107;-82
2023/07/08 00:16:49;;;;;;;14.77;8.48;;;16.50;99.90;;;;;;5009728;28;20034;-82
2023/07/08 00:19:19;;;;;;;11.93;7.68;;;16.50;99.90;;;;;;5008989;28;20033;-82
2023/07/08 00:21:45;;;;;;;13.35;8.18;;;16.50;99.90;;;;;;5008442;28;20042;-82
2023/07/08 00:24:10;;;;;;;14.15;8.10;;;16.50;99.90;;;;;;5009955;28;21518;-82
2023/07/08 00:26:36;;;;;;;13.88;7.78;;;16.50;99.90;;;;;;5011115;28;20034;-81
2023/07/08 00:29:02;;;;;;;12.43;8.85;;;16.50;99.90;;;;;;5009053;28;20048;-82
2023/07/08 00:31:27;;;;;;;12.07;7.65;;;16.50;99.90;;;;;;5010415;28;20064;-82
2023/07/08 00:33:55;;;;;;;13.80;7.75;;;16.40;99.90;;;;;;5005616;28;20030;-82
2023/07/08 00:36:22;;;;;;;12.88;7.70;;;16.40;99.90;;;;;;5005731;28;20047;-82
2023/07/08 00:38:47;;;;;;;13.52;8.15;;;16.30;99.90;;;;;;5008201;28;20049;-81
2023/07/08 00:41:23;;;;;;;13.27;7.97;;;16.20;99.90;;;;;;5004972;28;20371;-82
2023/07/08 00:43:55;;;;;;;11.20;7.68;;;16.20;99.90;;;;;;5007442;28;20082;-82
2023/07/08 00:46:27;;;;;;;13.32;8.20;;;16.20;99.90;;;;;;5008785;28;20048;-82
2023/07/08 00:48:56;;;;;;;13.15;8.05;;;16.10;99.90;;;;;;5009109;28;20033;-82
2023/07/08 00:51:22;;;;;;;10.57;7.68;;;16.00;99.90;;;;;;5010628;28;20038;-81
2023/07/08 00:53:48;;;;;;;13.77;8.55;;;16.00;99.90;;;;;;5006018;28;20033;-82
2023/07/08 00:56:34;;;;;;;12.98;8.40;;;16.00;99.90;;;;;;5010314;28;20032;-82
2023/07/08 00:59:10;;;;;;;;;;;16.00;99.90;;;;;;5008849;28;20598;-82
2023/07/08 01:01:40;;;;;;;14.38;8.13;;;16.00;99.90;;;;;;5009545;28;19924;-80
2023/07/08 01:04:14;;;;;;;11.18;7.85;;;16.00;99.90;;;;;;5008792;28;20116;-80
2023/07/08 01:06:43;;;;;;;13.93;8.57;;;16.00;99.90;;;;;;5008684;28;20040;-81
2023/07/08 01:09:12;;;;;;;12.50;8.15;;;16.00;99.90;;;;;;5008750;28;20072;-81
2023/07/08 01:11:39;;;;;;;11.27;7.72;;;16.00;99.90;;;;;;5007120;28;20036;-81
2023/07/08 01:14:12;;;;;;;11.50;7.65;;;15.90;99.90;;;;;;5008223;28;20549;-81
2023/07/08 01:16:38;;;;;;;11.68;6.85;;;16.00;99.90;;;;;;5007186;28;20318;-81
2023/07/08 01:19:09;;;;;;;12.73;7.78;;;15.90;99.90;;;;;;5006651;28;20033;-81
2023/07/08 01:21:44;;;;;;;11.60;7.95;;;15.90;99.90;;;;;;5007022;28;20044;-81
2023/07/08 01:24:11;;;;;;;13.43;7.82;;;16.00;99.90;;;;;;5005891;28;20581;-81
2023/07/08 01:26:41;;;;;;;13.82;7.45;;;15.90;99.90;;;;;;5003559;28;20030;-81
2023/07/08 01:29:07;;;;;;;13.73;7.75;;;15.90;99.90;;;;;;5006070;28;20042;-81
2023/07/08 01:31:33;;;;;;;14.75;8.25;;;15.90;99.90;;;;;;5005861;28;20048;-80
2023/07/08 01:33:59;;;;;;;13.48;8.25;;;15.90;99.90;;;;;;5005634;28;20037;-81
2023/07/08 01:36:29;;;;;;;10.77;7.32;;;15.80;99.90;;;;;;5004584;28;20034;-81
2023/07/08 01:38:55;;;;;;;12.60;8.32;;;15.80;99.90;;;;;;5004258;28;20041;-81
2023/07/08 01:41:21;;;;;;;12.18;7.82;;;15.80;99.90;;;;;;5005145;28;20038;-81
2023/07/08 01:43:46;;;;;;;11.27;7.32;;;15.70;99.90;;;;;;5006996;28;20073;-80
2023/07/08 01:46:18;;;;;;;15.30;8.02;;;15.60;99.90;;;;;;5007580;28;20220;-81
2023/07/08 01:48:49;;;;;;;14.40;8.18;;;15.60;99.90;;;;;;5008824;28;20042;-80
2023/07/08 01:51:14;;;;;;;13.52;8.30;;;15.50;99.90;;;;;;5007420;28;20049;-80
2023/07/08 01:53:42;;;;;;;11.98;8.00;;;15.40;99.90;;;;;;5007865;28;20042;-81
2023/07/08 01:56:08;;;;;;;12.00;7.45;;;15.40;99.90;;;;;;5008574;28;20025;-80
2023/07/08 01:58:34;;;;;;;13.60;7.50;;;15.30;99.90;;;;;;5008518;28;20041;-81
2023/07/08 02:01:00;;;;;;;11.15;7.97;;;15.30;99.90;;;;;;5007626;28;20030;-80
2023/07/08 02:03:27;;;;;;;13.93;7.55;;;15.30;99.90;;;;;;5009086;28;20127;-81
2023/07/08 02:05:53;;;;;;;13.23;7.68;;;15.30;99.90;;;;;;5008484;28;20058;-81
2023/07/08 02:08:19;;;;;;;14.30;7.95;;;15.30;99.90;;;;;;5008977;28;20457;-80
2023/07/08 02:10:50;;;;;;;14.18;7.60;;;15.30;99.90;;;;;;5009546;28;20112;-81
2023/07/08 02:13:16;;;;;;;13.00;8.38;;;15.30;99.90;;;;;;5012171;28;20346;-80
2023/07/08 02:15:42;;;;;;;12.60;7.80;;;15.30;99.90;;;;;;5011339;28;20036;-81
2023/07/08 02:18:07;;;;;;;15.00;8.70;;;15.30;99.90;;;;;;5012472;28;20045;-80
2023/07/08 02:20:33;;;;;;;14.35;8.20;;;15.30;99.90;;;;;;5009083;28;20117;-80
2023/07/08 02:22:58;;;;;;;14.50;8.60;;;15.30;99.90;;;;;;5011871;28;20046;-80
2023/07/08 02:25:24;;;;;;;14.27;8.15;;;15.30;99.90;;;;;;5011881;28;20083;-81
2023/07/08 02:27:49;;;;;;;13.80;8.60;;;15.30;99.90;;;;;;5013301;28;20052;-80
2023/07/08 02:30:15;;;;;;;12.85;8.10;;;15.30;99.90;;;;;;5010620;28;20045;-81
2023/07/08 02:32:41;;;;;;;12.10;8.15;;;15.30;99.90;;;;;;5010941;28;20038;-81
2023/07/08 02:35:08;;;;;;;13.27;8.45;;;15.30;99.90;;;;;;5010156;28;20110;-81
2023/07/08 02:37:34;;;;;;;13.32;8.55;;;15.20;99.90;;;;;;5009247;28;20033;-80
2023/07/08 02:40:00;;;;;;;15.38;8.55;;;15.20;99.90;;;;;;5010824;28;20048;-80
2023/07/08 02:42:26;;;;;;;12.00;7.85;;;15.20;99.90;;;;;;5010942;28;20033;-80
2023/07/08 02:44:51;;;;;;;11.80;8.57;;;15.20;99.90;;;;;;5010760;28;20029;-80
2023/07/08 02:47:17;;;;;;;15.63;8.07;;;15.20;99.90;;;;;;5010956;28;20029;-80
2023/07/08 02:49:43;;;;;;;13.02;7.85;;;15.10;99.90;;;;;;5011823;28;20044;-81
2023/07/08 02:52:08;;;;;;;12.73;8.45;;;15.10;99.90;;;;;;5012983;28;20136;-80
2023/07/08 02:54:34;;;;;;;13.27;8.43;;;15.10;99.90;;;;;;5013119;28;20041;-81
2023/07/08 02:57:00;;;;;;;13.93;8.43;;;15.20;99.90;;;;;;5012184;28;20856;-81
2023/07/08 02:59:27;;;;;;;14.23;8.60;;;15.20;99.90;;;;;;5011372;28;20033;-81
2023/07/08 03:01:53;;;;;;;13.00;8.30;;;15.20;99.90;;;;;;5011254;28;20112;-81
2023/07/08 03:04:21;;;;;;;14.32;8.15;;;15.20;99.90;;;;;;5010458;28;20041;-81
2023/07/08 03:06:49;;;;;;;11.50;7.57;;;15.20;99.90;;;;;;5012048;28;20033;-80
2023/07/08 03:09:15;;;;;;;12.52;7.65;;;15.20;99.90;;;;;;5010329;28;20156;-80
2023/07/08 03:11:41;;;;;;;9.95;6.97;;;15.20;99.90;;;;;;5010385;28;20120;-81
2023/07/08 03:14:06;;;;;;;13.57;7.25;;;15.20;99.90;;;;;;5009642;28;20048;-81
2023/07/08 03:16:32;;;;;;;11.77;7.63;;;15.20;99.90;;;;;;5010933;28;20040;-81
2023/07/08 03:18:58;;;;;;;10.95;7.20;;;15.20;99.90;;;;;;5011926;28;20069;-81
2023/07/08 03:21:23;;;;;;;14.43;7.60;;;15.30;99.90;;;;;;5009136;28;20068;-80
2023/07/08 03:23:51;;;;;;;11.60;6.82;;;15.30;99.90;;;;;;5009440;28;20037;-80
2023/07/08 03:26:20;;;;;;;15.18;8.07;;;15.30;99.90;;;;;;5010982;28;20038;-80
2023/07/08 03:28:46;;;;;;;11.13;7.63;;;15.30;99.90;;;;;;5011023;28;20061;-81
2023/07/08 03:31:12;;;;;;;11.45;7.88;;;15.40;99.90;;;;;;5009989;28;20032;-81
2023/07/08 03:33:38;;;;;;;11.30;7.72;;;15.40;99.90;;;;;;5010054;28;20405;-81
2023/07/08 03:36:10;;;;;;;12.57;8.30;;;15.40;99.90;;;;;;5007536;28;20044;-81
2023/07/08 03:38:35;;;;;;;12.45;7.57;;;15.50;99.90;;;;;;5009223;28;20589;-81
2023/07/08 03:41:01;;;;;;;11.65;7.68;;;15.50;99.90;;;;;;5008548;28;20065;-80
2023/07/08 03:43:26;;;;;;;13.82;7.45;;;15.50;99.90;;;;;;5005959;28;20033;-81
2023/07/08 03:45:52;;;;;;;14.43;7.53;;;15.50;99.90;;;;;;5006850;28;20022;-80
2023/07/08 03:48:17;;;;;;;13.63;8.05;;;15.50;99.90;;;;;;5007552;28;20022;-81
2023/07/08 03:50:43;;;;;;;10.75;7.32;;;15.50;99.90;;;;;;5010226;28;20026;-81
2023/07/08 03:53:09;;;;;;;13.15;7.72;;;15.50;99.90;;;;;;5009904;28;20457;-80
2023/07/08 03:55:34;;;;;;;11.68;7.88;;;15.50;99.90;;;;;;5010921;28;20025;-81
2023/07/08 03:58:00;;;;;;;15.32;8.35;;;15.50;99.90;;;;;;5012112;28;20140;-81
2023/07/08 04:00:26;;;;;;;11.30;7.75;;;15.50;99.90;;;;;;5012175;28;20026;-80
2023/07/08 04:02:51;;;;;;;14.45;8.50;;;15.50;99.90;;;;;;5010318;28;20042;-81
2023/07/08 04:05:19;;;;;;;11.77;7.95;;;15.50;99.90;;;;;;5012342;28;20022;-80
2023/07/08 04:07:45;;;;;;;13.93;7.78;;;15.50;99.90;;;;;;5011420;28;20172;-80
2023/07/08 04:10:12;;;;;;;11.90;7.68;;;15.50;99.90;;;;;;5012936;28;20079;-80
2023/07/08 04:12:38;;;;;;;12.68;7.95;;;15.50;99.90;;;;;;5011223;28;20101;-81
2023/07/08 04:15:04;;;;;;;17.00;8.15;;;15.50;99.90;;;;;;5011099;28;20280;-80
2023/07/08 04:17:30;;;;;;;12.38;7.88;;;15.50;99.90;;;;;;5009673;28;20036;-81
2023/07/08 04:20:01;;;;;;;14.00;7.93;;;15.60;99.90;;;;;;5011401;28;20042;-81
2023/07/08 04:22:26;;;;;;;15.23;7.68;;;15.60;99.90;;;;;;5011793;28;20037;-81
2023/07/08 04:24:52;;;;;;;12.15;7.38;;;15.60;99.90;;;;;;5012432;28;20029;-81
2023/07/08 04:27:17;;;;;;;10.50;7.43;;;15.60;99.90;;;;;;5011062;28;20046;-81
2023/07/08 04:29:43;;;;;;;10.73;7.60;;;15.60;99.90;;;;;;5012427;28;20069;-80
2023/07/08 04:32:09;;;;;;;13.43;7.80;;;15.60;99.90;;;;;;5010672;28;20953;-80
2023/07/08 04:34:35;;;;;;;16.50;9.32;;;15.60;99.90;;;;;;5011610;28;20074;-82
2023/07/08 04:37:01;;;;;;;14.10;8.18;;;15.60;99.90;;;;;;5008176;28;20044;-79
2023/07/08 04:39:26;;;;;;;12.65;7.32;;;15.60;99.90;;;;;;5008135;28;20068;-79
2023/07/08 04:41:52;;;;;;;11.80;7.68;;;15.70;99.90;;;;;;5007662;28;20042;-78
2023/07/08 04:44:19;;;;;;;13.00;8.45;;;15.70;99.90;;;;;;5006228;28;20120;-78
2023/07/08 04:46:46;;;;;;;18.42;8.63;;;15.70;99.90;;;;;;5002832;28;20034;-78
2023/07/08 04:49:13;;;;;;;13.35;8.20;;;15.80;99.90;;;;;;5006028;28;20026;-79
2023/07/08 04:51:41;;;;;;;12.20;7.43;;;15.80;99.90;;;;;;5005566;28;20026;-78
2023/07/08 04:54:07;;;;;;;14.27;8.30;;;15.90;99.90;;;;;;5004488;28;20040;-78
2023/07/08 04:56:45;;;;;;;12.48;7.93;;;15.90;99.90;;;;;;5004796;28;20030;-78
2023/07/08 04:59:14;;;;;;;13.45;7.50;;;15.90;99.90;;;;;;5004053;28;20037;-78
2023/07/08 05:01:40;;;;;;;12.95;7.80;;;16.00;99.90;;;;;;5004357;28;20030;-77
2023/07/08 05:04:06;;;;;;;18.20;7.90;;;16.00;99.90;;;;;;5002595;28;20041;-78
2023/07/08 05:06:33;;;;;;;12.68;7.90;;;16.10;99.90;;;;;;5003904;28;20052;-78
2023/07/08 05:08:59;;;;;;;17.90;8.45;;;16.10;99.90;;;;;;5003387;28;20034;-77
2023/07/08 05:11:25;;;;;;;13.70;8.65;;;16.20;99.90;;;;;;5004815;28;20034;-77
2023/07/08 05:13:51;;;;;;;10.32;7.00;;;16.20;99.90;;;;;;5002913;28;20033;-78
2023/07/08 05:16:17;;;;;;;12.57;7.90;;;16.30;99.90;;;;;;5002638;28;20038;-77
2023/07/08 05:18:42;;;;;;;11.77;7.63;;;16.40;99.90;;;;;;4998263;28;20069;-78
2023/07/08 05:21:09;;;;;;;12.15;7.90;;;16.40;99.90;;;;;;4993716;28;20136;-78
2023/07/08 05:23:35;;;;;;;14.93;7.55;;;16.50;99.90;;;;;;4994230;28;20138;-78
2023/07/08 05:26:02;;;;;;;12.15;7.03;;;16.60;99.90;;;;;;4995042;28;20416;-78
2023/07/08 05:28:28;;;;;;;14.32;7.25;;;16.70;99.90;;;;;;4996822;28;20089;-77
2023/07/08 05:30:55;;;;;;;13.30;6.45;;;16.70;99.90;;;;;;4995551;28;20901;-78
2023/07/08 05:33:24;;;;;;;11.20;6.72;;;16.80;99.90;;;;;;4994515;28;20663;-78
2023/07/08 05:35:50;;;;;;;14.02;6.75;;;16.80;99.90;;;;;;4994763;28;20063;-78
2023/07/08 05:38:15;;;;;;;9.80;6.53;;;17.00;99.90;;;;;;4957899;28;1053924;-78
2023/07/08 05:40:41;;;;;;;12.65;7.03;;;17.00;99.90;;;;;;5021720;22;20053;-80
2023/07/08 05:43:07;;;;;;;11.82;6.78;;;17.10;99.90;;;;;;4974069;28;20138;-80
2023/07/08 05:45:33;;;;;;;13.10;7.18;;;17.10;99.90;;;;;;4977057;28;20030;-80
2023/07/08 05:47:59;;;;;;;13.10;7.07;;;17.20;99.90;;;;;;4977807;28;20531;-79
2023/07/08 05:50:24;;;;;;;10.43;6.60;;;17.30;99.90;;;;;;4980349;28;20192;-79
2023/07/08 05:52:50;;;;;;;10.65;7.00;;;17.40;99.90;;;;;;4985635;28;20065;-82
2023/07/08 05:55:16;;;;;;;10.15;6.78;;;17.60;99.90;;;;;;4988196;28;20034;-81
2023/07/08 05:57:41;;;;;;;10.05;6.13;;;17.70;99.90;;;;;;4988673;28;20026;-78
2023/07/08 06:00:08;;;;;;;8.48;6.43;;;17.80;99.90;;;;;;4981724;28;20030;-78
2023/07/08 06:02:33;;;;;;;12.30;6.38;;;18.00;99.90;;;;;;4982785;28;20033;-78
2023/07/08 06:04:59;;;;;;;11.48;6.53;;;18.10;99.90;;;;;;4989619;28;20039;-81
2023/07/08 06:07:24;;;;;;;15.85;6.57;;;18.30;99.90;;;;;;4996159;28;20251;-81
2023/07/08 06:09:51;;;;;;;9.68;6.50;;;18.40;99.90;;;;;;4983540;28;20082;-78
2023/07/08 06:12:16;;;;;;;8.27;6.00;;;18.50;99.90;;;;;;4986746;28;20045;-80
2023/07/08 06:14:42;;;;;;;10.40;6.85;;;18.50;99.90;;;;;;4986347;28;20450;-78
2023/07/08 06:17:09;;;;;;;11.23;6.50;;;18.60;99.90;;;;;;4980266;28;20053;-78
2023/07/08 06:19:34;;;;;;;10.52;6.40;;;18.60;99.90;;;;;;4981711;28;20026;-78
2023/07/08 06:22:00;;;;;;;9.93;6.25;;;18.70;99.90;;;;;;4980933;28;20034;-78
2023/07/08 06:24:25;;;;;;;17.92;8.10;;;18.80;99.90;;;;;;4979806;28;20494;-77
2023/07/08 06:26:51;;;;;;;9.18;6.70;;;18.90;99.90;;;;;;4978942;28;20034;-78
2023/07/08 06:29:16;;;;;;;7.57;5.75;;;19.10;99.90;;;;;;4981778;28;20056;-77
2023/07/08 06:31:42;;;;;;;11.35;6.35;;;19.30;99.90;;;;;;4982028;28;20502;-77
2023/07/08 06:34:07;;;;;;;10.60;6.35;;;19.50;99.90;;;;;;4980163;28;20168;-77
2023/07/08 06:36:33;;;;;;;10.13;6.85;;;19.80;99.90;;;;;;4978144;28;20423;-78
2023/07/08 06:38:59;;;;;;;9.77;5.65;;;20.00;99.90;;;;;;4982559;28;20038;-77
2023/07/08 06:41:24;;;;;;;11.02;6.55;;;20.20;99.90;;;;;;4987706;28;20057;-79
2023/07/08 06:43:50;;;;;;;10.93;7.38;;;20.40;99.90;;;;;;4988084;28;20053;-79
2023/07/08 06:46:16;;;;;;;14.25;7.55;;;20.50;99.90;;;;;;4987746;28;20031;-80
2023/07/08 06:48:42;;;;;;;10.07;6.70;;;20.70;99.90;;;;;;4989058;28;20033;-79
2023/07/08 06:51:08;;;;;;;12.75;6.97;;;20.80;99.90;;;;;;4979395;28;20391;-78
2023/07/08 06:53:33;;;;;;;11.77;7.18;;;20.90;99.90;;;;;;4977702;28;20030;-78
2023/07/08 06:55:59;;;;;;;11.57;6.95;;;21.00;99.90;;;;;;4976691;28;20030;-78
2023/07/08 06:58:24;;;;;;;12.38;7.97;;;21.00;99.90;;;;;;4978778;28;20038;-78
2023/07/08 07:00:50;;;;;;;12.38;6.40;;;21.00;99.90;;;;;;4979328;28;20568;-79
2023/07/08 07:03:15;;;;;;;10.63;7.07;;;21.00;99.90;;;;;;4980151;28;20478;-79
2023/07/08 07:05:42;;;;;;;14.93;7.55;;;21.10;99.90;;;;;;4977444;28;20049;-77
2023/07/08 07:08:08;;;;;;;14.30;8.25;;;21.20;99.90;;;;;;4980830;28;20041;-79
2023/07/08 07:10:34;;;;;;;12.68;7.65;;;21.20;99.90;;;;;;4975709;28;20051;-78
2023/07/08 07:13:00;;;;;;;12.07;7.55;;;21.20;99.90;;;;;;4978820;28;20105;-79
2023/07/08 07:15:25;;;;;;;14.80;8.55;;;21.30;99.90;;;;;;4976138;28;20678;-78
2023/07/08 07:17:51;;;;;;;12.95;8.43;;;21.30;99.90;;;;;;4979760;28;20410;-74
2023/07/08 07:20:17;;;;;;;14.88;8.25;;;21.50;99.90;;;;;;4974990;28;20041;-79
2023/07/08 07:22:42;;;;;;;11.63;7.78;;;21.50;99.90;;;;;;4978254;28;20542;-79
2023/07/08 07:25:08;;;;;;;15.70;8.52;;;21.60;99.90;;;;;;4978109;28;20704;-79
2023/07/08 07:27:34;;;;;;;15.27;8.40;;;21.60;99.90;;;;;;4977549;28;20903;-79
2023/07/08 07:29:59;;;;;;;12.73;8.57;;;21.60;99.90;;;;;;4980793;28;20031;-79
2023/07/08 07:32:25;;;;;;;13.38;8.38;;;21.50;99.90;;;;;;4980714;28;20116;-80
2023/07/08 07:34:52;;;;;;;12.55;8.15;;;21.50;99.90;;;;;;4978934;28;20080;-80
2023/07/08 07:37:19;;;;;;;14.45;7.82;;;21.30;99.90;;;;;;4979576;28;20106;-80
2023/07/08 07:39:45;;;;;;;10.85;7.53;;;21.30;99.90;;;;;;4984067;28;20100;-80
2023/07/08 07:42:13;;;;;;;14.90;9.23;;;21.30;99.90;;;;;;4980510;28;20042;-79
2023/07/08 07:44:41;;;;;;;13.55;8.90;;;21.40;99.90;;;;;;4978925;28;20062;-80
2023/07/08 07:47:08;;;;;;;14.02;8.15;;;21.40;99.90;;;;;;4980567;28;20034;-82
2023/07/08 07:49:34;;;;;;;11.18;7.95;;;21.50;99.90;;;;;;4985272;28;20026;-80
2023/07/08 07:52:00;;;;;;;14.07;7.88;;;21.60;99.90;;;;;;4980965;28;20060;-81
2023/07/08 07:54:26;;;;;;;15.77;8.27;;;21.70;99.90;;;;;;4982505;28;20050;-80
2023/07/08 07:56:52;;;;;;;14.32;8.55;;;21.90;99.90;;;;;;4987596;28;20027;-79
2023/07/08 07:59:18;;;;;;;11.90;8.25;;;21.90;99.90;;;;;;4988135;28;20791;-79
2023/07/08 08:01:44;;;;;;;13.00;7.88;;;22.10;99.90;;;;;;4985792;28;20034;-80
2023/07/08 08:04:10;;;;;;;11.93;7.82;;;22.20;99.90;;;;;;4982472;28;21180;-80
2023/07/08 08:06:36;;;;;;;12.63;8.35;;;22.30;99.90;;;;;;4983613;28;20030;-79
2023/07/08 08:09:03;;;;;;;13.90;8.10;;;22.30;99.90;;;;;;4966515;28;20042;-80
2023/07/08 08:11:29;;;;;;;12.65;8.35;;;22.40;99.90;;;;;;4983062;28;20485;-79
2023/07/08 08:13:54;;;;;;;11.98;7.82;;;22.50;99.90;;;;;;4986289;28;20034;-79
2023/07/08 08:16:21;;;;;;;13.32;7.90;;;22.60;99.90;;;;;;4982929;28;20483;-80
2023/07/08 08:18:47;;;;;;;13.18;8.45;;;22.70;99.90;;;;;;4981952;28;20041;-80
2023/07/08 08:21:13;;;;;;;15.02;8.20;;;22.80;99.90;;;;;;4981506;28;20023;-79
2023/07/08 08:23:39;;;;;;;14.90;7.65;;;22.80;99.90;;;;;;4964782;28;20046;-79
2023/07/08 08:26:04;;;;;;;11.30;7.40;;;22.90;99.90;;;;;;4985086;28;20030;-79
2023/07/08 08:28:30;;;;;;;13.88;8.77;;;23.00;99.90;;;;;;4982931;28;20080;-81
2023/07/08 08:30:56;;;;;;;15.07;8.43;;;23.10;99.90;;;;;;4984912;28;20046;-80
2023/07/08 08:33:22;;;;;;;14.88;8.23;;;23.10;99.90;;;;;;4983632;28;20510;-81
2023/07/08 08:35:48;;;;;;;14.43;8.95;;;23.20;99.90;;;;;;4986355;28;20033;-81
2023/07/08 08:38:13;;;;;;;10.95;7.88;;;23.20;99.90;;;;;;4987922;28;20027;-81
2023/07/08 08:40:41;;;;;;;13.13;8.07;;;23.30;99.90;;;;;;4988110;28;20030;-81
2023/07/08 08:43:17;;;;;;;13.02;7.95;;;23.40;99.90;;;;;;4985279;28;20039;-82
2023/07/08 08:45:57;;;;;;;16.08;8.10;;;23.50;99.90;;;;;;4982017;28;20022;-83
2023/07/08 08:48:25;;;;;;;13.27;8.05;;;23.60;99.90;;;;;;4982259;28;20102;-81
2023/07/08 08:50:55;;;;;;;22.73;8.45;;;23.70;99.90;;;;;;4964107;28;20157;-81
2023/07/08 08:53:22;;;;;;;16.02;8.05;;;23.80;99.90;;;;;;4983184;28;20018;-82
2023/07/08 08:56:10;;;;;;;11.00;8.00;;;23.80;99.90;;;;;;4984012;28;20034;-84
2023/07/08 08:58:43;;;;;;;14.95;8.52;;;23.80;99.90;;;;;;4984248;28;20705;-82
2023/07/08 09:01:12;;;;;;;14.82;8.10;;;23.90;99.90;;;;;;4980797;28;20054;-81
2023/07/08 09:03:50;;;;;;;15.82;8.55;;;24.00;99.90;;;;;;4981204;28;21348;-81
2023/07/08 09:06:28;;;;;;;10.80;7.25;;;24.10;99.90;;;;;;4981616;28;20153;-80
2023/07/08 09:08:56;;;;;;;10.35;7.78;;;24.00;99.90;;;;;;4980411;28;20113;-79
2023/07/08 09:11:30;;;;;;;14.82;8.20;;;24.00;99.90;;;;;;4981433;28;20045;-80
2023/07/08 09:13:56;;;;;;;12.07;8.82;;;24.00;99.90;;;;;;4985098;28;20466;-86
2023/07/08 09:16:40;;;;;;;17.70;8.20;;;24.00;99.90;;;;;;4987016;28;20046;-80
2023/07/08 09:19:12;;;;;;;10.68;7.63;;;24.00;99.90;;;;;;4978402;28;20033;-80
2023/07/08 09:21:55;;;;;;;13.05;8.50;;;24.10;99.90;;;;;;4977399;28;21497;-80
2023/07/08 09:24:49;;;;;;;11.23;7.05;;;24.10;99.90;;;;;;4975042;28;20046;-80
2023/07/08 09:27:15;;;;;;;11.98;7.30;;;24.10;99.90;;;;;;4975713;28;20034;-81
2023/07/08 09:29:40;;;;;;;10.60;7.32;;;24.30;99.90;;;;;;4976646;28;20038;-81
2023/07/08 09:32:21;;;;;;;11.57;7.60;;;24.40;99.90;;;;;;4983518;28;20094;-80
2023/07/08 09:34:51;;;;;;;9.73;6.93;;;24.40;99.90;;;;;;4983216;28;20038;-80
2023/07/08 09:37:26;;;;;;;13.63;7.35;;;24.50;99.90;;;;;;4981098;28;20025;-80
2023/07/08 09:39:53;;;;;;;12.25;7.13;;;24.40;99.90;;;;;;4963346;28;20034;-79
2023/07/08 09:42:21;;;;;;;16.23;6.97;;;24.40;99.90;;;;;;4979474;28;20046;-79
2023/07/08 09:44:47;;;;;;;13.80;7.70;;;24.70;99.90;;;;;;4978520;28;20042;-79
2023/07/08 09:47:26;;;;;;;13.10;6.93;;;24.70;99.90;;;;;;4979982;28;20026;-79
2023/07/08 09:49:53;;;;;;;13.02;7.35;;;24.80;99.90;;;;;;4978512;28;20181;-79
2023/07/08 09:52:18;;;;;;;14.82;6.90;;;25.00;99.90;;;;;;4977506;28;20085;-81
2023/07/08 09:54:46;;;;;;;15.20;7.03;;;25.10;99.90;;;;;;4979108;28;20030;-81
2023/07/08 09:57:25;;;;;;;11.15;7.22;;;25.20;99.90;;;;;;4978738;28;20046;-80
2023/07/08 10:00:03;;;;;;;18.17;7.85;;;25.50;99.90;;;;;;4976933;28;20737;-81
2023/07/08 10:02:30;;;;;;;13.18;8.15;;;25.60;99.90;;;;;;4977076;28;20062;-79
2023/07/08 10:05:00;;;;;;;13.10;7.13;;;25.70;99.90;;;;;;4978744;28;20084;-80
2023/07/08 10:07:29;;;;;;;15.27;7.28;;;25.90;99.90;;;;;;4981834;28;20054;-81
2023/07/08 10:09:57;;;;;;;11.00;7.20;;;26.30;99.90;;;;;;4975484;28;20080;-80
2023/07/08 10:12:24;;;;;;;9.13;6.72;;;26.60;99.90;;;;;;4974783;28;20088;-84
2023/07/08 10:14:59;;;;;;;10.15;6.65;;;26.60;99.90;;;;;;4977163;28;20459;-82
2023/07/08 10:17:25;;;;;;;11.50;7.30;;;26.70;99.90;;;;;;4977703;28;20073;-81
2023/07/08 10:19:50;;;;;;;13.85;6.50;;;26.80;99.90;;;;;;4978977;28;20043;-83
2023/07/08 10:22:19;;;;;;;10.88;6.53;;;26.90;99.90;;;;;;4978710;28;20022;-83
2023/07/08 10:25:06;;;;;;;9.88;6.10;;;26.90;99.90;;;;;;4973973;28;20061;-87
2023/07/08 10:27:39;;;;;;;9.68;6.43;;;27.20;99.90;;;;;;4972905;28;21002;-88
2023/07/08 10:30:20;;;;;;;9.93;6.85;;;27.50;99.90;;;;;;4976367;28;20058;-86
2023/07/08 10:32:53;;;;;;;7.30;6.00;;;27.60;99.90;;;;;;4979936;28;20031;-85
2023/07/08 10:35:27;;;;;;;10.68;5.90;;;27.80;99.90;;;;;;4961313;28;20031;-83
2023/07/08 10:38:19;;;;;;;10.60;6.35;;;28.10;99.90;;;;;;4981023;28;20633;-82
2023/07/08 10:40:51;;;;;;;10.00;6.43;;;28.50;99.90;;;;;;4982282;28;20336;-84
2023/07/08 10:43:28;;;;;;;11.30;6.20;;;28.70;99.90;;;;;;4979091;28;20371;-84
2023/07/08 10:46:13;;;;;;;9.13;6.72;;;28.90;99.90;;;;;;4981408;28;20122;-84
2023/07/08 10:49:09;;;;;;;11.43;5.95;;;29.10;99.90;;;;;;4979974;28;20427;-79
2023/07/08 10:51:46;;;;;;;9.95;6.20;;;29.30;99.90;;;;;;4982072;28;20022;-83
2023/07/08 10:54:35;;;;;;;9.32;6.95;;;29.30;99.90;;;;;;4981207;28;20057;-83
2023/07/08 10:57:23;;;;;;;8.00;5.68;;;29.40;99.90;;;;;;4982640;28;20026;-84
2023/07/08 10:59:55;;;;;;;8.95;6.03;;;29.60;99.90;;;;;;4984956;28;20033;-80
2023/07/08 11:02:57;;;;;;;9.18;5.82;;;29.60;99.90;;;;;;4982329;28;20094;-81
2023/07/08 11:05:28;;;;;;;9.57;5.78;;;29.90;99.90;;;;;;4985513;28;20122;-81
2023/07/08 11:08:01;;;;;;;11.80;6.22;;;29.90;99.90;;;;;;4989265;28;20019;-79
2023/07/08 11:10:35;;;;;;;9.07;6.00;;;29.90;99.90;;;;;;4986293;28;20026;-80
2023/07/08 11:13:14;;;;;;;11.32;5.93;;;30.10;99.80;;;;;;4987762;28;20026;-80
2023/07/08 11:16:05;;;;;;;10.75;5.63;;;30.30;98.20;;;;;;4984645;28;20045;-82
2023/07/08 11:18:48;;;;;;;10.00;6.57;;;30.40;97.30;;;;;;4975817;28;20046;-81
2023/07/08 11:21:35;;;;;;;10.25;6.43;;;30.40;96.70;;;;;;4985478;28;20030;-81
2023/07/08 11:24:00;;;;;;;9.27;6.05;;;30.40;98.60;;;;;;4983005;28;20077;-81
2023/07/08 11:26:41;;;;;;;11.23;6.03;;;30.30;98.20;;;;;;4978423;28;20690;-79
2023/07/08 11:29:20;;;;;;;8.48;6.20;;;30.30;98.20;;;;;;4980904;28;20034;-78
2023/07/08 11:31:47;;;;;;;7.68;5.82;;;30.40;98.00;;;;;;4979962;28;20065;-81
2023/07/08 11:34:15;;;;;;;12.20;6.00;;;30.30;97.40;;;;;;4979730;28;21011;-82
2023/07/08 11:36:43;;;;;;;8.63;6.07;;;30.50;98.10;;;;;;4980369;28;20037;-82
2023/07/08 11:39:46;;;;;;;9.52;5.95;;;30.70;98.80;;;;;;4960588;28;20035;-77
2023/07/08 11:42:18;;;;;;;10.50;5.95;;;30.90;96.40;;;;;;4993368;23;20043;-81
2023/07/08 11:44:49;;;;;;;7.93;5.75;;;31.10;97.90;;;;;;4998403;28;20045;-80
2023/07/08 11:47:32;;;;;;;12.27;6.00;;;31.20;94.80;;;;;;4996965;28;20125;-83
2023/07/08 11:49:58;;;;;;;9.90;6.55;;;31.10;95.80;;;;;;4999581;28;20410;-82
2023/07/08 11:52:24;;;;;;;11.15;6.03;;;31.30;95.80;;;;;;4999536;28;20017;-80
2023/07/08 11:54:58;;;;;;;6.82;5.70;;;31.30;95.20;;;;;;4999837;28;21275;-80
2023/07/08 11:57:31;;;;;;;11.68;6.10;;;31.50;95.30;;;;;;5001931;28;20438;-80
2023/07/08 12:00:19;;;;;;;11.90;5.95;;;31.70;94.20;;;;;;4995645;28;20030;-78
2023/07/08 12:02:52;;;;;;;9.38;6.45;;;32.20;92.90;;;;;;4995545;28;20034;-78
2023/07/08 12:05:33;;;;;;;9.85;6.53;;;32.10;92.20;;;;;;4995339;28;20042;-81
2023/07/08 12:08:03;;;;;;;8.23;6.38;;;32.10;92.30;;;;;;4996588;28;20034;-77
2023/07/08 12:10:34;;;;;;;9.63;6.05;;;31.60;92.30;;;;;;4997464;28;20021;-80
2023/07/08 12:13:01;;;;;;;10.30;6.22;;;31.30;92.10;;;;;;4996554;28;20065;-77
2023/07/08 12:15:29;;;;;;;8.98;6.03;;;31.00;92.90;;;;;;4996168;28;20112;-78
2023/07/08 12:18:06;;;;;;;11.90;6.25;;;31.00;91.80;;;;;;4996904;28;20129;-79
2023/07/08 12:20:35;;;;;;;8.18;5.63;;;30.80;93.00;;;;;;4996323;28;20053;-78
2023/07/08 12:23:02;;;;;;;8.85;5.97;;;30.70;93.50;;;;;;4995424;28;20486;-78
2023/07/08 12:25:34;;;;;;;9.43;6.65;;;30.70;93.10;;;;;;4994661;28;20042;-78
2023/07/08 12:28:00;;;;;;;12.98;6.35;;;31.00;91.10;;;;;;4996352;28;20030;-81
2023/07/08 12:30:28;;;;;;;11.20;6.38;;;30.80;92.10;;;;;;4997405;28;20042;-78
2023/07/08 12:32:55;;;;;;;12.68;6.22;;;30.60;90.70;;;;;;4997777;28;20034;-79
2023/07/08 12:35:25;;;;;;;10.27;6.57;;;30.30;93.00;;;;;;4994390;28;20116;-86
2023/07/08 12:38:11;;;;;;;8.98;6.35;;;30.20;93.00;;;;;;4995300;28;20757;-83
2023/07/08 12:40:37;;;;;;;7.88;5.80;;;30.10;93.40;;;;;;4975486;28;20702;-78
2023/07/08 12:43:08;;;;;;;8.30;5.97;;;30.20;92.00;;;;;;4995739;28;20022;-80
2023/07/08 12:45:34;;;;;;;15.45;6.55;;;30.30;91.00;;;;;;4994469;28;20030;-78
2023/07/08 12:48:00;;;;;;;9.32;6.47;;;30.20;89.10;;;;;;4996325;28;20544;-81